Time;durP1;ratioP1;P1;durP2;ratioP2;P2;SDS_P1;SDS_P2;PMS_P1;PMS_P2;Temp;Humidity;BMP_temperature;BMP_pressure;BME280_temperature;BME280_humidity;BME280_pressure;Samples;Min_cycle;Max_cycle;Signal;HPM_P1;HPM_P2
2021/09/01 00:01:11;;;;;;;9.63;4.20;;;18.90;84.70;;;;;;5052778;28;20041;-63
2021/09/01 00:03:36;;;;;;;8.23;4.25;;;18.80;84.80;;;;;;5043009;28;20051;-63
2021/09/01 00:06:02;;;;;;;8.32;4.60;;;18.80;84.90;;;;;;5046614;28;20501;-62
2021/09/01 00:08:28;;;;;;;8.52;4.72;;;18.80;84.90;;;;;;5044494;28;20029;-63
2021/09/01 00:10:53;;;;;;;9.77;5.10;;;18.80;85.00;;;;;;5043252;28;20054;-63
2021/09/01 00:13:19;;;;;;;9.00;5.50;;;18.80;85.00;;;;;;5055444;28;21371;-63
2021/09/01 00:15:44;;;;;;;8.07;5.55;;;18.70;85.00;;;;;;5059118;28;20044;-62
2021/09/01 00:18:10;;;;;;;6.05;5.40;;;18.70;85.10;;;;;;5060154;28;20021;-63
2021/09/01 00:20:35;;;;;;;9.27;5.93;;;18.70;85.20;;;;;;5058962;28;20039;-62
2021/09/01 00:23:01;;;;;;;8.48;5.72;;;18.70;85.30;;;;;;5062123;28;20028;-62
2021/09/01 00:25:27;;;;;;;8.90;7.47;;;18.80;85.40;;;;;;5028094;28;20136;-63
2021/09/01 00:27:52;;;;;;;10.60;7.15;;;18.70;85.40;;;;;;5078732;28;20491;-62
2021/09/01 00:30:18;;;;;;;9.70;7.13;;;18.60;85.40;;;;;;5026936;28;20036;-62
2021/09/01 00:32:43;;;;;;;11.52;7.35;;;18.60;85.40;;;;;;5028495;28;20024;-62
2021/09/01 00:35:09;;;;;;;10.45;7.72;;;18.60;85.40;;;;;;5075828;28;20074;-62
2021/09/01 00:37:34;;;;;;;9.05;6.63;;;18.60;85.40;;;;;;5061019;28;20047;-63
2021/09/01 00:40:00;;;;;;;8.73;6.55;;;18.60;85.50;;;;;;5063485;28;20039;-62
2021/09/01 00:42:25;;;;;;;11.30;6.18;;;18.60;85.50;;;;;;5062327;28;20039;-62
2021/09/01 00:44:51;;;;;;;10.40;6.47;;;18.60;85.50;;;;;;5045071;28;20031;-62
2021/09/01 00:47:17;;;;;;;6.90;5.80;;;18.60;85.50;;;;;;5064263;28;20040;-60
2021/09/01 00:49:43;;;;;;;9.20;6.15;;;18.60;85.60;;;;;;5067585;28;20466;-60
2021/09/01 00:52:09;;;;;;;8.27;6.00;;;18.60;85.60;;;;;;5082693;28;20090;-63
2021/09/01 00:54:34;;;;;;;11.50;6.15;;;18.50;85.60;;;;;;5057582;28;20440;-63
2021/09/01 00:57:01;;;;;;;9.25;5.75;;;18.50;85.60;;;;;;5047649;28;20483;-63
2021/09/01 00:59:28;;;;;;;8.18;5.70;;;18.50;85.70;;;;;;5058681;28;20033;-63
2021/09/01 01:01:54;;;;;;;12.32;6.05;;;18.50;85.80;;;;;;5064300;28;20128;-63
2021/09/01 01:04:20;;;;;;;13.85;6.50;;;18.40;85.80;;;;;;5059309;28;20131;-63
2021/09/01 01:06:46;;;;;;;6.97;5.13;;;18.40;85.80;;;;;;5062624;28;20517;-62
2021/09/01 01:09:11;;;;;;;12.23;5.78;;;18.40;85.90;;;;;;5065843;28;20620;-63
2021/09/01 01:11:37;;;;;;;11.18;5.55;;;18.40;85.90;;;;;;5050065;28;20526;-63
2021/09/01 01:14:03;;;;;;;14.63;5.75;;;18.40;85.90;;;;;;5083454;28;20535;-62
2021/09/01 01:16:30;;;;;;;10.20;5.88;;;18.40;86.00;;;;;;5046162;28;20059;-62
2021/09/01 01:18:56;;;;;;;13.02;5.43;;;18.40;86.00;;;;;;5060537;28;20053;-63
2021/09/01 01:21:25;;;;;;;9.80;6.10;;;18.30;85.90;;;;;;5046460;28;20353;-63
2021/09/01 01:24:00;;;;;;;13.48;6.15;;;18.30;86.00;;;;;;5075184;28;20044;-63
2021/09/01 01:26:26;;;;;;;17.95;6.32;;;18.30;86.10;;;;;;5066450;28;20032;-63
2021/09/01 01:28:57;;;;;;;12.55;5.55;;;18.30;86.20;;;;;;5061565;28;20036;-63
2021/09/01 01:31:22;;;;;;;12.02;5.72;;;18.30;86.20;;;;;;5050381;28;20522;-63
2021/09/01 01:33:48;;;;;;;11.90;5.03;;;18.20;86.20;;;;;;5063279;28;20043;-63
2021/09/01 01:36:13;;;;;;;13.98;5.65;;;18.20;86.30;;;;;;5048008;28;20039;-63
2021/09/01 01:38:39;;;;;;;9.07;5.43;;;18.20;86.40;;;;;;5077166;28;20360;-63
2021/09/01 01:41:04;;;;;;;10.80;5.22;;;18.10;86.40;;;;;;5060892;28;20051;-63
2021/09/01 01:43:35;;;;;;;10.98;5.38;;;18.20;86.50;;;;;;5061907;28;20032;-62
2021/09/01 01:46:00;;;;;;;10.10;5.40;;;18.20;86.60;;;;;;5079545;28;20103;-63
2021/09/01 01:48:26;;;;;;;9.68;5.25;;;18.20;86.60;;;;;;5080468;28;20043;-63
2021/09/01 01:50:51;;;;;;;10.20;5.38;;;18.10;86.70;;;;;;5062937;28;20372;-62
2021/09/01 01:53:17;;;;;;;11.75;4.85;;;18.10;86.60;;;;;;5056777;28;20028;-63
2021/09/01 01:55:42;;;;;;;7.70;5.22;;;18.10;86.70;;;;;;5062237;28;20059;-62
2021/09/01 01:58:08;;;;;;;11.88;5.30;;;18.10;86.80;;;;;;5060538;28;20069;-62
2021/09/01 02:00:34;;;;;;;7.70;5.00;;;18.10;86.80;;;;;;5057739;28;20028;-62
2021/09/01 02:02:59;;;;;;;9.38;4.90;;;18.10;86.80;;;;;;5058295;28;20515;-62
2021/09/01 02:05:25;;;;;;;7.47;5.05;;;18.10;86.70;;;;;;5080364;28;20028;-63
2021/09/01 02:07:51;;;;;;;7.90;5.05;;;18.10;86.80;;;;;;5050484;28;20096;-62
2021/09/01 02:10:16;;;;;;;9.75;4.97;;;18.10;86.80;;;;;;5049624;28;20443;-62
2021/09/01 02:12:42;;;;;;;9.10;4.90;;;18.10;86.80;;;;;;5058857;28;20472;-62
2021/09/01 02:15:09;;;;;;;9.43;5.10;;;18.10;86.90;;;;;;5047471;28;20028;-62
2021/09/01 02:17:34;;;;;;;6.75;4.80;;;18.00;86.90;;;;;;5041360;28;20044;-63
2021/09/01 02:20:00;;;;;;;6.80;5.00;;;18.00;87.00;;;;;;5064992;28;20036;-63
2021/09/01 02:22:25;;;;;;;8.25;5.07;;;18.00;87.10;;;;;;5077873;28;20161;-62
2021/09/01 02:24:51;;;;;;;9.23;4.90;;;18.00;87.10;;;;;;5059184;28;20076;-63
2021/09/01 02:27:18;;;;;;;8.75;5.15;;;17.90;87.20;;;;;;5042697;28;20102;-63
2021/09/01 02:29:43;;;;;;;6.40;5.05;;;18.00;87.20;;;;;;5064108;28;20061;-63
2021/09/01 02:32:09;;;;;;;6.25;4.63;;;17.90;87.20;;;;;;5078892;28;20345;-62
2021/09/01 02:34:34;;;;;;;8.07;5.13;;;17.90;87.40;;;;;;5058218;28;20118;-62
2021/09/01 02:37:00;;;;;;;6.80;5.35;;;17.90;87.40;;;;;;5080389;28;20170;-62
2021/09/01 02:39:25;;;;;;;7.82;5.03;;;17.90;87.40;;;;;;5062622;28;20471;-63
2021/09/01 02:41:51;;;;;;;9.32;5.40;;;17.90;87.40;;;;;;5055541;28;20055;-63
2021/09/01 02:44:16;;;;;;;6.47;4.75;;;17.90;87.40;;;;;;5044395;28;20473;-63
2021/09/01 02:46:42;;;;;;;7.43;4.97;;;17.90;87.40;;;;;;5059808;28;20032;-62
2021/09/01 02:49:08;;;;;;;11.70;4.60;;;17.80;87.40;;;;;;5080829;28;20063;-62
2021/09/01 02:51:33;;;;;;;7.28;5.22;;;17.80;87.40;;;;;;5041353;28;20109;-63
2021/09/01 02:53:59;;;;;;;8.18;5.00;;;17.80;87.40;;;;;;5045483;28;20024;-63
2021/09/01 02:56:24;;;;;;;7.85;5.30;;;17.80;87.50;;;;;;5047783;28;20089;-63
2021/09/01 02:58:50;;;;;;;8.93;5.43;;;17.80;87.50;;;;;;5069781;28;20033;-63
2021/09/01 03:01:15;;;;;;;9.57;5.32;;;17.70;87.50;;;;;;5051645;28;20040;-62
2021/09/01 03:03:41;;;;;;;6.35;4.90;;;17.70;87.50;;;;;;5074792;28;20028;-63
2021/09/01 03:06:06;;;;;;;6.55;4.70;;;17.70;87.50;;;;;;5036981;28;20028;-63
2021/09/01 03:08:32;;;;;;;12.05;5.13;;;17.70;87.50;;;;;;5040772;28;20513;-63
2021/09/01 03:10:57;;;;;;;7.32;4.97;;;17.70;87.60;;;;;;5062443;28;20159;-63
2021/09/01 03:13:23;;;;;;;10.63;4.85;;;17.70;87.60;;;;;;5056848;28;20028;-63
2021/09/01 03:15:48;;;;;;;8.25;5.15;;;17.60;87.50;;;;;;5056891;28;20578;-63
2021/09/01 03:18:14;;;;;;;7.25;5.68;;;17.60;87.60;;;;;;5078787;28;20121;-62
2021/09/01 03:20:39;;;;;;;9.82;5.53;;;17.60;87.70;;;;;;5061243;28;20393;-63
2021/09/01 03:23:05;;;;;;;13.50;5.75;;;17.50;87.80;;;;;;5028560;28;20587;-63
2021/09/01 03:25:31;;;;;;;44.08;8.18;;;17.60;88.00;;;;;;5054683;28;20090;-63
2021/09/01 03:27:59;;;;;;;88.47;11.85;;;17.60;88.00;;;;;;5043910;28;20032;-62
2021/09/01 03:30:24;;;;;;;77.00;11.00;;;17.60;87.90;;;;;;5051744;28;20196;-63
2021/09/01 03:32:50;;;;;;;54.92;9.80;;;17.50;87.70;;;;;;5040879;28;20036;-62
2021/09/01 03:35:15;;;;;;;102.38;13.38;;;17.60;87.70;;;;;;5078410;28;20844;-63
2021/09/01 03:37:41;;;;;;;92.20;10.93;;;17.50;87.70;;;;;;5060866;28;20036;-62
2021/09/01 03:40:07;;;;;;;77.97;10.07;;;17.50;87.70;;;;;;5060479;28;20016;-62
2021/09/01 03:42:33;;;;;;;94.18;11.48;;;17.50;87.80;;;;;;5061984;28;20036;-63
2021/09/01 03:44:58;;;;;;;96.50;12.07;;;17.50;87.80;;;;;;5079601;28;20039;-62
2021/09/01 03:47:24;;;;;;;110.95;11.10;;;17.50;87.80;;;;;;5058320;28;20047;-62
2021/09/01 03:49:49;;;;;;;78.50;11.18;;;17.50;87.90;;;;;;5059667;28;20306;-62
2021/09/01 03:52:15;;;;;;;91.45;11.88;;;17.50;88.00;;;;;;5072234;28;20086;-63
2021/09/01 03:54:40;;;;;;;86.10;11.35;;;17.50;88.00;;;;;;5076971;28;20029;-62
2021/09/01 03:57:06;;;;;;;83.10;10.60;;;17.40;88.00;;;;;;5068614;28;20410;-63
2021/09/01 03:59:31;;;;;;;77.68;10.70;;;17.40;88.00;;;;;;5073133;28;20539;-62
2021/09/01 04:01:57;;;;;;;73.78;10.63;;;17.40;88.10;;;;;;5052982;28;20059;-62
2021/09/01 04:04:23;;;;;;;64.65;10.43;;;17.40;88.80;;;;;;5055322;28;20576;-63
2021/09/01 04:06:48;;;;;;;59.15;9.75;;;17.40;88.10;;;;;;5064193;28;20044;-62
2021/09/01 04:09:14;;;;;;;70.72;11.13;;;17.40;88.20;;;;;;5042364;28;20412;-63
2021/09/01 04:11:40;;;;;;;68.20;10.20;;;17.40;88.30;;;;;;5047149;28;20024;-63
2021/09/01 04:14:05;;;;;;;55.20;10.45;;;17.40;88.30;;;;;;5047500;28;20085;-62
2021/09/01 04:16:31;;;;;;;64.43;9.43;;;17.40;88.30;;;;;;5083274;28;20310;-63
2021/09/01 04:18:56;;;;;;;65.55;10.60;;;17.40;88.30;;;;;;5055188;28;20619;-63
2021/09/01 04:21:22;;;;;;;64.55;9.25;;;17.40;88.30;;;;;;5060764;28;20078;-62
2021/09/01 04:23:47;;;;;;;61.67;9.52;;;17.40;88.40;;;;;;5078065;28;20372;-62
2021/09/01 04:26:13;;;;;;;54.92;9.38;;;17.40;88.50;;;;;;5060504;28;20538;-63
2021/09/01 04:28:38;;;;;;;40.70;8.65;;;17.40;88.50;;;;;;5055793;28;20019;-63
2021/09/01 04:31:04;;;;;;;60.88;9.73;;;17.30;88.50;;;;;;5048130;28;20497;-63
2021/09/01 04:33:31;;;;;;;59.53;10.20;;;17.30;88.60;;;;;;5061190;28;20052;-63
2021/09/01 04:35:56;;;;;;;64.68;10.40;;;17.30;88.70;;;;;;5060658;28;20232;-63
2021/09/01 04:38:22;;;;;;;43.05;8.98;;;17.30;88.70;;;;;;5061407;28;20301;-63
2021/09/01 04:40:47;;;;;;;38.88;8.15;;;17.30;88.70;;;;;;5062127;28;20024;-63
2021/09/01 04:43:13;;;;;;;37.97;8.15;;;17.30;88.70;;;;;;5062020;28;20448;-62
2021/09/01 04:45:38;;;;;;;38.92;8.13;;;17.30;88.70;;;;;;5061554;28;20032;-63
2021/09/01 04:48:04;;;;;;;49.42;9.45;;;17.30;88.80;;;;;;5076301;28;20041;-62
2021/09/01 04:50:30;;;;;;;150.32;14.52;;;17.30;88.80;;;;;;5080129;28;20051;-62
2021/09/01 04:52:55;;;;;;;125.80;13.30;;;17.30;88.90;;;;;;5063070;28;20021;-62
2021/09/01 04:55:21;;;;;;;60.50;10.18;;;17.30;89.00;;;;;;5083020;28;20036;-62
2021/09/01 04:57:46;;;;;;;55.17;9.40;;;17.30;89.10;;;;;;5080258;28;20040;-62
2021/09/01 05:00:12;;;;;;;52.83;8.98;;;17.30;89.00;;;;;;5061505;28;20048;-62
2021/09/01 05:02:38;;;;;;;43.55;8.38;;;17.30;89.10;;;;;;5062046;28;20089;-62
2021/09/01 05:05:04;;;;;;;42.15;7.90;;;17.30;89.20;;;;;;5065337;28;20060;-63
2021/09/01 05:07:30;;;;;;;38.25;8.10;;;17.30;89.20;;;;;;5061256;28;20048;-63
2021/09/01 05:09:55;;;;;;;38.42;8.15;;;17.30;89.10;;;;;;5065846;28;20494;-63
2021/09/01 05:12:26;;;;;;;46.38;9.50;;;17.30;89.20;;;;;;5047736;28;20045;-63
2021/09/01 05:14:51;;;;;;;31.65;9.32;;;17.30;89.40;;;;;;5046422;28;20425;-63
2021/09/01 05:17:17;;;;;;;37.70;9.05;;;17.20;89.30;;;;;;5043461;28;20123;-63
2021/09/01 05:19:42;;;;;;;34.45;8.07;;;17.20;89.20;;;;;;5060419;28;20050;-63
2021/09/01 05:22:08;;;;;;;34.10;8.15;;;17.20;89.20;;;;;;5058875;28;20496;-62
2021/09/01 05:24:37;;;;;;;32.00;8.35;;;17.20;89.20;;;;;;5061838;28;20080;-62
2021/09/01 05:27:09;;;;;;;35.03;6.95;;;17.20;89.20;;;;;;5079912;28;20428;-62
2021/09/01 05:29:38;;;;;;;24.33;7.53;;;17.10;89.30;;;;;;5062979;28;20052;-63
2021/09/01 05:32:04;;;;;;;30.23;8.35;;;17.20;89.40;;;;;;5060075;28;20046;-63
2021/09/01 05:34:29;;;;;;;28.63;7.93;;;17.10;89.30;;;;;;5031717;28;20036;-62
2021/09/01 05:36:55;;;;;;;19.38;7.50;;;17.20;89.30;;;;;;5056947;28;20104;-62
2021/09/01 05:39:20;;;;;;;22.08;7.32;;;17.10;89.20;;;;;;5046214;28;20082;-63
2021/09/01 05:41:46;;;;;;;38.58;7.35;;;17.10;89.40;;;;;;5056265;28;20548;-63
2021/09/01 05:44:12;;;;;;;30.88;7.47;;;17.10;89.40;;;;;;5058577;28;20130;-63
2021/09/01 05:46:37;;;;;;;18.85;7.68;;;17.10;89.40;;;;;;5059073;28;20063;-63
2021/09/01 05:49:03;;;;;;;20.73;7.82;;;17.10;89.40;;;;;;5041856;28;20078;-62
2021/09/01 05:51:28;;;;;;;22.58;7.45;;;17.10;89.30;;;;;;5057088;28;20116;-63
2021/09/01 05:53:54;;;;;;;24.35;8.05;;;17.10;89.20;;;;;;5040499;28;20058;-62
2021/09/01 05:56:25;;;;;;;12.75;6.40;;;17.10;89.30;;;;;;5060568;28;20081;-62
2021/09/01 05:58:53;;;;;;;21.45;7.50;;;17.10;89.30;;;;;;5054133;28;20023;-62
2021/09/01 06:01:19;;;;;;;21.70;7.10;;;17.10;89.30;;;;;;5043890;28;20484;-63
2021/09/01 06:03:45;;;;;;;28.08;7.15;;;17.20;89.30;;;;;;5059303;28;20164;-62
2021/09/01 06:06:10;;;;;;;20.02;7.43;;;17.10;89.20;;;;;;5046546;28;20460;-62
2021/09/01 06:08:36;;;;;;;27.58;7.00;;;17.10;89.10;;;;;;5038798;28;20159;-63
2021/09/01 06:11:03;;;;;;;19.05;7.07;;;17.10;89.10;;;;;;5063812;28;20560;-62
2021/09/01 06:13:29;;;;;;;17.60;7.60;;;17.10;89.00;;;;;;5058920;28;20104;-62
2021/09/01 06:15:56;;;;;;;16.75;6.93;;;17.10;89.00;;;;;;5062750;28;20487;-63
2021/09/01 06:18:22;;;;;;;13.07;6.65;;;17.10;89.00;;;;;;5059393;28;20068;-62
2021/09/01 06:20:48;;;;;;;15.63;6.70;;;17.10;89.00;;;;;;5030260;28;20016;-62
2021/09/01 06:23:13;;;;;;;25.77;7.32;;;17.10;89.00;;;;;;5048587;28;20444;-62
2021/09/01 06:25:39;;;;;;;19.30;7.10;;;17.10;88.90;;;;;;5058719;28;20048;-63
2021/09/01 06:28:04;;;;;;;15.52;7.55;;;17.10;89.10;;;;;;5073096;28;20494;-62
2021/09/01 06:30:30;;;;;;;17.77;7.50;;;17.10;89.20;;;;;;5059812;28;20432;-62
2021/09/01 06:32:56;;;;;;;23.27;8.20;;;17.20;89.40;;;;;;5043456;28;20036;-62
2021/09/01 06:35:21;;;;;;;20.92;8.23;;;17.10;89.60;;;;;;5077056;28;20479;-62
2021/09/01 06:37:47;;;;;;;19.05;7.97;;;17.20;89.60;;;;;;5075105;28;20326;-62
2021/09/01 06:40:13;;;;;;;19.92;7.78;;;17.10;89.40;;;;;;5056352;28;20423;-62
2021/09/01 06:42:39;;;;;;;23.00;8.70;;;17.20;89.60;;;;;;5053498;28;20029;-62
2021/09/01 06:45:05;;;;;;;24.88;8.27;;;17.20;89.70;;;;;;5040087;28;20323;-62
2021/09/01 06:47:47;;;;;;;22.85;8.45;;;17.20;89.80;;;;;;5052657;28;20395;-62
2021/09/01 06:50:14;;;;;;;18.20;8.10;;;17.20;89.80;;;;;;5060840;28;20047;-62
2021/09/01 06:52:40;;;;;;;17.27;7.80;;;17.20;89.60;;;;;;5043879;28;20039;-62
2021/09/01 06:55:06;;;;;;;30.65;8.85;;;17.20;89.60;;;;;;5054497;28;20028;-62
2021/09/01 06:57:32;;;;;;;37.25;9.52;;;17.20;89.60;;;;;;5043935;28;20032;-62
2021/09/01 06:59:57;;;;;;;37.85;9.95;;;17.20;89.60;;;;;;5058770;28;20036;-62
2021/09/01 07:02:23;;;;;;;34.72;8.70;;;17.20;89.80;;;;;;5080726;28;20083;-62
2021/09/01 07:04:48;;;;;;;27.75;9.70;;;17.20;90.00;;;;;;5070047;28;20079;-63
2021/09/01 07:07:14;;;;;;;40.47;10.80;;;17.30;90.00;;;;;;5036001;28;20027;-63
2021/09/01 07:09:39;;;;;;;33.20;10.98;;;17.30;90.00;;;;;;5057959;28;20087;-62
2021/09/01 07:12:05;;;;;;;36.42;10.75;;;17.20;90.10;;;;;;5038148;28;20036;-62
2021/09/01 07:14:30;;;;;;;29.90;9.93;;;17.20;90.20;;;;;;5059759;28;20453;-62
2021/09/01 07:16:56;;;;;;;17.42;9.60;;;17.20;90.60;;;;;;5041911;28;20696;-62
2021/09/01 07:19:21;;;;;;;27.20;9.32;;;17.20;90.30;;;;;;5044077;28;20096;-62
2021/09/01 07:21:47;;;;;;;29.35;10.65;;;17.10;90.20;;;;;;5059575;28;20097;-62
2021/09/01 07:24:12;;;;;;;47.45;12.00;;;17.10;90.30;;;;;;5053862;28;20056;-62
2021/09/01 07:26:38;;;;;;;70.20;12.93;;;17.10;90.40;;;;;;5058669;28;20036;-62
2021/09/01 07:29:04;;;;;;;21.27;10.27;;;17.10;90.30;;;;;;5055815;28;20035;-61
2021/09/01 07:31:31;;;;;;;35.47;10.13;;;17.10;90.30;;;;;;5057618;28;20075;-61
2021/09/01 07:33:57;;;;;;;34.80;9.80;;;17.10;90.10;;;;;;5056303;28;20028;-60
2021/09/01 07:36:23;;;;;;;42.40;10.35;;;17.10;90.10;;;;;;5056199;28;20115;-61
2021/09/01 07:38:48;;;;;;;37.95;9.75;;;17.10;90.40;;;;;;5053098;28;20115;-61
2021/09/01 07:41:14;;;;;;;30.35;9.20;;;17.20;90.10;;;;;;5076995;28;20118;-61
2021/09/01 07:43:39;;;;;;;16.80;8.20;;;17.20;90.00;;;;;;5061638;28;20156;-60
2021/09/01 07:46:05;;;;;;;17.98;7.57;;;17.20;90.30;;;;;;5059495;28;20043;-61
2021/09/01 07:48:30;;;;;;;14.00;8.55;;;17.20;90.00;;;;;;5064212;28;20119;-61
2021/09/01 07:50:56;;;;;;;16.42;7.78;;;17.20;90.00;;;;;;5064883;28;20027;-61
2021/09/01 07:53:21;;;;;;;12.57;8.15;;;17.20;90.00;;;;;;5048056;28;20097;-61
2021/09/01 07:55:47;;;;;;;19.10;8.20;;;17.20;90.00;;;;;;5059602;28;20039;-61
2021/09/01 07:58:12;;;;;;;11.63;7.30;;;17.20;90.00;;;;;;5061942;28;20059;-61
2021/09/01 08:00:39;;;;;;;12.98;7.90;;;17.20;89.90;;;;;;5059882;28;21496;-61
2021/09/01 08:03:04;;;;;;;11.02;7.53;;;17.20;89.80;;;;;;5030761;28;20454;-61
2021/09/01 08:05:30;;;;;;;12.27;7.43;;;17.20;89.80;;;;;;5060972;28;20090;-61
2021/09/01 08:07:55;;;;;;;14.35;7.40;;;17.20;89.70;;;;;;5047010;28;20021;-61
2021/09/01 08:10:21;;;;;;;16.65;7.95;;;17.30;89.80;;;;;;5056771;28;20065;-61
2021/09/01 08:12:47;;;;;;;15.90;8.73;;;17.30;90.00;;;;;;5044517;28;20044;-61
2021/09/01 08:15:12;;;;;;;19.35;8.15;;;17.30;89.50;;;;;;5043821;28;20024;-61
2021/09/01 08:17:38;;;;;;;12.50;7.47;;;17.30;89.50;;;;;;5041430;28;20024;-61
2021/09/01 08:20:04;;;;;;;12.65;6.35;;;17.30;89.40;;;;;;5060399;28;20039;-61
2021/09/01 08:22:30;;;;;;;10.65;7.65;;;17.40;89.30;;;;;;5045013;28;20097;-61
2021/09/01 08:24:55;;;;;;;12.43;6.90;;;17.30;89.00;;;;;;5038248;28;20048;-61
2021/09/01 08:27:21;;;;;;;9.63;6.95;;;17.30;88.90;;;;;;5059434;28;20515;-61
2021/09/01 08:29:46;;;;;;;13.80;7.55;;;17.30;88.90;;;;;;5060421;28;20032;-61
2021/09/01 08:32:12;;;;;;;16.33;7.38;;;17.30;89.20;;;;;;5061047;28;20028;-61
2021/09/01 08:34:38;;;;;;;9.10;6.45;;;17.30;89.10;;;;;;5057891;28;20115;-61
2021/09/01 08:37:04;;;;;;;12.55;7.00;;;17.40;88.90;;;;;;5060181;28;20028;-61
2021/09/01 08:39:29;;;;;;;9.63;5.75;;;17.40;88.80;;;;;;5036847;28;20039;-61
2021/09/01 08:41:55;;;;;;;10.98;6.60;;;17.30;88.70;;;;;;5041766;28;20111;-61
2021/09/01 08:44:21;;;;;;;6.80;5.70;;;17.30;88.70;;;;;;5039892;28;20240;-61
2021/09/01 08:46:47;;;;;;;11.00;6.05;;;17.40;88.50;;;;;;5041489;28;20059;-61
2021/09/01 08:49:13;;;;;;;15.43;5.80;;;17.30;88.20;;;;;;5056410;28;20341;-61
2021/09/01 08:51:38;;;;;;;7.90;4.88;;;17.30;88.40;;;;;;5052051;28;20785;-61
2021/09/01 08:54:04;;;;;;;12.68;5.70;;;17.40;88.60;;;;;;5039444;28;20036;-61
2021/09/01 08:56:30;;;;;;;12.32;5.65;;;17.40;88.70;;;;;;5051591;28;20024;-61
2021/09/01 08:58:56;;;;;;;11.70;5.80;;;17.40;88.70;;;;;;5058779;28;20024;-60
2021/09/01 09:01:37;;;;;;;16.92;6.13;;;17.50;88.80;;;;;;5058174;28;20494;-61
2021/09/01 09:04:03;;;;;;;26.02;6.43;;;17.50;88.80;;;;;;5073918;28;20044;-61
2021/09/01 09:06:45;;;;;;;15.65;5.82;;;17.50;88.60;;;;;;5077364;28;20108;-61
2021/09/01 09:09:12;;;;;;;11.10;5.82;;;17.50;88.50;;;;;;5061018;28;20036;-61
2021/09/01 09:11:37;;;;;;;10.30;5.28;;;17.50;88.50;;;;;;5040437;28;20115;-61
2021/09/01 09:14:28;;;;;;;9.18;5.70;;;17.60;88.60;;;;;;5058666;28;20122;-61
2021/09/01 09:17:21;;;;;;;10.70;5.68;;;17.60;88.70;;;;;;5068803;28;20091;-61
2021/09/01 09:20:02;;;;;;;18.10;5.85;;;17.60;88.60;;;;;;5061184;28;20183;-61
2021/09/01 09:22:35;;;;;;;14.60;5.88;;;17.60;88.70;;;;;;5057969;28;20052;-61
2021/09/01 09:25:07;;;;;;;88.18;12.48;;;17.60;88.80;;;;;;5052967;28;21423;-60
2021/09/01 09:27:47;;;;;;;23.80;6.03;;;17.70;88.90;;;;;;5058569;28;20487;-61
2021/09/01 09:30:29;;;;;;;18.77;5.75;;;17.70;88.80;;;;;;5057121;28;20047;-61
2021/09/01 09:32:56;;;;;;;11.95;5.30;;;17.80;88.70;;;;;;5075609;28;20084;-61
2021/09/01 09:35:21;;;;;;;10.38;5.30;;;17.80;88.60;;;;;;5058380;28;20032;-61
2021/09/01 09:38:03;;;;;;;13.38;5.40;;;17.80;88.50;;;;;;5076356;28;20024;-61
2021/09/01 09:40:29;;;;;;;11.23;5.63;;;17.80;88.30;;;;;;5042417;28;20024;-61
2021/09/01 09:42:55;;;;;;;12.27;5.80;;;17.90;88.20;;;;;;5075407;28;20506;-61
2021/09/01 09:45:22;;;;;;;7.60;5.60;;;18.00;88.20;;;;;;5052237;28;20070;-61
2021/09/01 09:47:49;;;;;;;12.63;6.00;;;17.90;87.90;;;;;;5053284;28;20447;-61
2021/09/01 09:50:14;;;;;;;12.07;6.05;;;17.90;87.60;;;;;;5055418;28;20044;-60
2021/09/01 09:52:40;;;;;;;9.30;5.53;;;17.90;87.50;;;;;;5050825;28;20058;-61
2021/09/01 09:55:12;;;;;;;9.75;5.78;;;18.00;87.30;;;;;;5055952;28;20036;-61
2021/09/01 09:57:48;;;;;;;13.30;6.30;;;18.00;87.20;;;;;;5064083;27;20236;-61
2021/09/01 10:00:14;;;;;;;18.02;6.00;;;18.00;87.10;;;;;;5069902;28;20028;-61
2021/09/01 10:02:42;;;;;;;17.27;5.80;;;18.10;87.10;;;;;;5054022;28;20036;-61
2021/09/01 10:05:10;;;;;;;13.25;5.85;;;18.10;87.00;;;;;;5042976;28;20464;-61
2021/09/01 10:07:35;;;;;;;17.20;5.90;;;18.10;86.80;;;;;;5038263;28;20028;-61
2021/09/01 10:10:02;;;;;;;12.60;5.30;;;18.20;86.60;;;;;;5018851;28;20055;-61
2021/09/01 10:12:27;;;;;;;10.65;5.20;;;18.20;86.30;;;;;;5055742;28;20051;-61
2021/09/01 10:14:53;;;;;;;8.40;5.07;;;18.30;86.00;;;;;;5057583;28;20142;-61
2021/09/01 10:17:18;;;;;;;14.63;5.65;;;18.30;85.70;;;;;;5044441;28;20449;-61
2021/09/01 10:19:44;;;;;;;6.85;4.38;;;18.30;85.50;;;;;;5075793;28;20840;-61
2021/09/01 10:22:09;;;;;;;14.82;4.97;;;18.40;85.30;;;;;;5072245;28;20044;-61
2021/09/01 10:24:36;;;;;;;11.90;5.63;;;18.40;84.90;;;;;;5059137;28;20283;-61
2021/09/01 10:27:07;;;;;;;20.42;6.57;;;18.40;84.70;;;;;;5057503;28;20048;-61
2021/09/01 10:29:58;;;;;;;34.42;6.35;;;18.50;84.60;;;;;;5056155;28;20027;-61
2021/09/01 10:32:24;;;;;;;36.53;6.65;;;18.50;84.40;;;;;;5024005;28;20341;-61
2021/09/01 10:34:59;;;;;;;17.48;6.35;;;18.60;84.10;;;;;;5052530;28;20705;-61
2021/09/01 10:37:40;;;;;;;28.38;6.55;;;18.60;83.80;;;;;;5056231;28;20633;-61
2021/09/01 10:40:07;;;;;;;28.77;6.07;;;18.60;83.60;;;;;;5072633;28;20040;-61
2021/09/01 10:42:38;;;;;;;24.95;6.40;;;18.70;83.60;;;;;;5055712;28;20039;-61
2021/09/01 10:45:14;;;;;;;21.70;5.75;;;18.70;82.90;;;;;;5057025;28;20521;-61
2021/09/01 10:47:52;;;;;;;19.45;5.60;;;18.80;83.10;;;;;;5067608;28;20073;-61
2021/09/01 10:50:38;;;;;;;36.92;6.05;;;18.80;82.40;;;;;;5073015;28;20099;-61
2021/09/01 10:53:18;;;;;;;19.42;6.07;;;18.90;82.00;;;;;;5050605;28;22107;-61
2021/09/01 10:55:51;;;;;;;26.33;5.57;;;18.90;81.40;;;;;;5054570;28;20115;-61
2021/09/01 10:58:24;;;;;;;27.58;6.38;;;18.90;81.40;;;;;;5055259;28;20024;-61
2021/09/01 11:01:16;;;;;;;30.33;5.90;;;19.00;82.20;;;;;;5053381;28;20064;-61
2021/09/01 11:03:46;;;;;;;31.20;6.18;;;19.00;81.10;;;;;;5037952;28;20454;-61
2021/09/01 11:06:22;;;;;;;27.92;5.95;;;19.10;81.10;;;;;;5040340;28;20161;-62
2021/09/01 11:09:10;;;;;;;20.85;5.35;;;19.10;80.50;;;;;;5042768;28;20036;-61
2021/09/01 11:11:54;;;;;;;51.05;7.07;;;19.20;80.00;;;;;;5073090;28;20036;-61
2021/09/01 11:14:37;;;;;;;13.90;4.32;;;19.20;78.90;;;;;;5052300;28;20028;-61
2021/09/01 11:17:09;;;;;;;21.35;5.50;;;19.30;76.20;;;;;;5039460;28;20622;-61
2021/09/01 11:19:35;;;;;;;28.67;5.78;;;19.60;76.20;;;;;;5065815;28;20272;-61
2021/09/01 11:22:06;;;;;;;23.50;5.90;;;19.50;75.00;;;;;;5043641;28;20123;-61
2021/09/01 11:24:43;;;;;;;30.30;5.43;;;19.50;75.10;;;;;;5049038;28;20047;-63
2021/09/01 11:27:13;;;;;;;31.98;5.60;;;19.60;74.40;;;;;;5050399;28;20056;-61
2021/09/01 11:29:39;;;;;;;47.67;8.15;;;19.70;74.90;;;;;;5060337;28;20036;-61
2021/09/01 11:32:04;;;;;;;56.08;7.53;;;19.70;75.30;;;;;;5069492;28;20089;-61
2021/09/01 11:34:33;;;;;;;52.85;7.38;;;19.80;75.50;;;;;;5067424;28;20367;-61
2021/09/01 11:36:58;;;;;;;64.93;8.90;;;19.80;75.60;;;;;;5034719;28;20466;-61
2021/09/01 11:39:24;;;;;;;43.72;7.15;;;19.90;75.40;;;;;;5068047;28;20180;-61
2021/09/01 11:41:59;;;;;;;33.13;5.90;;;19.90;75.10;;;;;;5067069;28;20108;-61
2021/09/01 11:44:25;;;;;;;;;;;19.90;73.80;;;;;;5045462;28;20055;-61
2021/09/01 11:46:50;;;;;;;58.00;8.65;;;20.00;73.70;;;;;;5037107;28;20710;-61
2021/09/01 11:49:16;;;;;;;61.63;8.43;;;20.10;74.10;;;;;;5034759;28;20101;-62
2021/09/01 11:51:43;;;;;;;43.58;6.53;;;20.10;74.20;;;;;;5074411;28;20086;-62
2021/09/01 11:54:09;;;;;;;29.67;6.60;;;20.20;73.50;;;;;;5053553;28;20066;-62
2021/09/01 11:56:35;;;;;;;40.88;6.50;;;20.30;73.20;;;;;;5036525;28;20240;-62
2021/09/01 11:59:11;;;;;;;57.97;7.78;;;20.30;72.70;;;;;;5071834;28;20470;-61
2021/09/01 12:01:52;;;;;;;63.67;7.55;;;20.40;73.00;;;;;;5073704;28;20099;-62
2021/09/01 12:04:18;;;;;;;70.40;8.52;;;20.50;72.40;;;;;;5052352;28;20597;-61
2021/09/01 12:06:45;;;;;;;37.72;6.25;;;20.50;72.20;;;;;;5033162;28;20040;-61
2021/09/01 12:09:13;;;;;;;31.05;5.53;;;20.50;71.80;;;;;;5048578;28;20115;-62
2021/09/01 12:11:53;;;;;;;30.88;5.78;;;20.60;70.90;;;;;;5054614;28;20042;-62
2021/09/01 12:14:22;;;;;;;28.70;6.82;;;20.70;71.00;;;;;;5041004;28;21548;-62
2021/09/01 12:16:48;;;;;;;27.02;5.22;;;20.70;71.10;;;;;;5051430;28;20028;-62
2021/09/01 12:19:13;;;;;;;22.15;5.10;;;20.70;69.50;;;;;;5023134;28;20028;-61
2021/09/01 12:21:46;;;;;;;63.83;9.00;;;20.70;69.30;;;;;;5064426;28;20036;-62
2021/09/01 12:24:16;;;;;;;40.03;6.55;;;20.80;69.60;;;;;;5070938;28;20036;-62
2021/09/01 12:26:53;;;;;;;34.05;6.18;;;20.80;69.50;;;;;;5051932;28;20032;-61
2021/09/01 12:29:23;;;;;;;59.50;7.43;;;20.90;70.00;;;;;;5062040;28;20030;-62
2021/09/01 12:31:52;;;;;;;74.75;10.73;;;20.90;69.20;;;;;;5073462;28;20397;-62
2021/09/01 12:34:24;;;;;;;40.42;6.40;;;21.00;68.80;;;;;;5073768;28;20059;-62
2021/09/01 12:37:00;;;;;;;33.17;7.15;;;21.00;68.60;;;;;;5076801;28;20520;-61
2021/09/01 12:39:25;;;;;;;30.65;5.95;;;21.00;68.80;;;;;;5057154;28;20043;-61